Time;durP1;ratioP1;P1;durP2;ratioP2;P2;SDS_P1;SDS_P2;PMS_P1;PMS_P2;Temp;Humidity;BMP_temperature;BMP_pressure;BME280_temperature;BME280_humidity;BME280_pressure;Samples;Min_cycle;Max_cycle;Signal;HPM_P1;HPM_P2
2022/01/31 00:00:19;;;;;;;;;;;7.10;99.90;;;;;;5058019;28;19908;-78
2022/01/31 00:02:46;;;;;;;;;;;7.10;99.90;;;;;;5075995;28;19987;-78
2022/01/31 00:05:12;;;;;;;;;;;7.00;99.90;;;;;;5075895;28;20320;-78
2022/01/31 00:07:37;;;;;;;;;;;7.00;99.90;;;;;;5075844;28;19947;-78
2022/01/31 00:10:07;;;;;;;;;;;7.10;99.90;;;;;;5075728;28;20281;-79
2022/01/31 00:12:43;;;;;;;;;;;6.90;99.90;;;;;;5075712;28;19908;-79
2022/01/31 00:15:08;;;;;;;;;;;6.90;99.90;;;;;;5054123;28;19929;-79
2022/01/31 00:17:34;;;;;;;;;;;6.80;99.90;;;;;;5055638;28;19916;-78
2022/01/31 00:19:59;;;;;;;;;;;6.80;99.90;;;;;;5054233;28;19909;-78
2022/01/31 00:22:25;;;;;;;;;;;6.70;99.90;;;;;;5055502;28;19909;-78
2022/01/31 00:24:51;;;;;;;;;;;6.70;99.90;;;;;;5055549;28;19909;-78
2022/01/31 00:27:16;;;;;;;;;;;6.70;99.90;;;;;;5055426;28;19916;-78
2022/01/31 00:29:42;;;;;;;;;;;6.70;99.90;;;;;;5055274;28;19942;-78
2022/01/31 00:32:07;;;;;;;;;;;6.70;99.90;;;;;;5055363;28;20389;-79
2022/01/31 00:34:34;;;;;;;;;;;6.70;99.90;;;;;;5055485;28;19916;-78
2022/01/31 00:37:00;;;;;;;;;;;6.80;99.90;;;;;;5055305;28;19924;-78
2022/01/31 00:39:25;;;;;;;;;;;6.90;99.90;;;;;;5053929;28;19913;-78
2022/01/31 00:41:51;;;;;;;;;;;6.90;99.90;;;;;;5055441;28;19915;-78
2022/01/31 00:44:30;;;;;;;;;;;6.90;99.90;;;;;;5055431;28;19909;-78
2022/01/31 00:47:04;;;;;;;;;;;7.00;99.90;;;;;;5055205;28;19909;-78
2022/01/31 00:51:58;;;;;;;;;;;7.10;99.90;;;;;;5054906;28;20027;-78
2022/01/31 00:54:24;;;;;;;;;;;7.20;99.90;;;;;;5054900;28;19908;-79
2022/01/31 00:56:50;;;;;;;;;;;7.20;99.90;;;;;;5055062;28;20415;-78
2022/01/31 00:59:16;;;;;;;;;;;7.30;99.90;;;;;;5055010;28;19962;-78
2022/01/31 01:01:42;;;;;;;;;;;7.30;99.90;;;;;;5054871;28;19939;-78
2022/01/31 01:04:08;;;;;;;;;;;7.50;99.90;;;;;;5054779;28;19916;-79
2022/01/31 01:06:33;;;;;;;;;;;7.60;99.90;;;;;;5055291;28;19909;-78
2022/01/31 01:08:59;;;;;;;;;;;7.60;99.90;;;;;;5054641;28;19909;-79
2022/01/31 01:11:24;;;;;;;;;;;7.60;99.90;;;;;;5054649;28;20399;-78
2022/01/31 01:13:50;;;;;;;;;;;7.60;99.90;;;;;;5057819;28;19928;-79
2022/01/31 01:16:16;;;;;;;;;;;7.60;99.90;;;;;;5074779;28;20292;-79
2022/01/31 01:18:41;;;;;;;;;;;7.60;99.90;;;;;;5074398;28;19915;-79
2022/01/31 01:21:07;;;;;;;;;;;7.60;99.90;;;;;;5056411;28;19952;-78
2022/01/31 01:23:32;;;;;;;;;;;7.60;99.90;;;;;;5074320;28;19908;-78
2022/01/31 01:25:58;;;;;;;;;;;7.60;99.90;;;;;;5074270;28;19919;-78
2022/01/31 01:28:25;;;;;;;;;;;7.40;99.90;;;;;;5074234;28;19999;-78
2022/01/31 01:30:51;;;;;;;;;;;7.40;99.90;;;;;;5074154;28;19913;-79
2022/01/31 01:33:22;;;;;;;;;;;7.40;99.90;;;;;;5074347;28;19922;-78
2022/01/31 01:35:50;;;;;;;;;;;7.40;99.90;;;;;;5074201;28;19956;-79
2022/01/31 01:38:17;;;;;;;;;;;7.40;99.90;;;;;;5074081;28;20011;-78
2022/01/31 01:40:44;;;;;;;;;;;7.60;99.90;;;;;;5074065;28;19959;-78
2022/01/31 01:43:10;;;;;;;;;;;7.60;99.90;;;;;;5074376;28;19943;-78
2022/01/31 01:45:36;;;;;;;;;;;7.60;99.90;;;;;;5074123;28;19908;-78
2022/01/31 01:48:06;;;;;;;;;;;7.70;99.90;;;;;;5073936;28;19908;-78
2022/01/31 01:50:32;;;;;;;;;;;7.80;99.90;;;;;;5074033;28;19919;-79
2022/01/31 01:52:58;;;;;;;;;;;7.90;99.90;;;;;;5073302;28;20007;-78
2022/01/31 01:55:23;;;;;;;;;;;8.00;99.90;;;;;;5055907;28;19944;-78
2022/01/31 01:57:49;;;;;;;;;;;8.10;99.90;;;;;;5073797;28;19909;-78
2022/01/31 02:00:26;;;;;;;;;;;8.20;99.90;;;;;;5073860;28;19915;-79
2022/01/31 02:02:52;;;;;;;;;;;8.20;99.90;;;;;;5055526;28;20277;-78
2022/01/31 02:05:18;;;;;;;;;;;8.20;99.90;;;;;;5073982;28;19909;-78
2022/01/31 02:07:44;;;;;;;;;;;8.10;99.90;;;;;;5073647;28;19908;-79
2022/01/31 02:10:11;;;;;;;;;;;8.10;99.90;;;;;;5073767;28;19912;-79
2022/01/31 02:12:46;;;;;;;;;;;8.10;99.90;;;;;;5073653;28;20349;-78
2022/01/31 02:15:13;;;;;;;;;;;8.20;99.90;;;;;;5073176;28;19944;-79
2022/01/31 02:17:39;;;;;;;;;;;8.30;99.90;;;;;;5073546;28;19913;-78
2022/01/31 02:20:06;;;;;;;;;;;8.20;99.90;;;;;;5073530;28;19908;-78
2022/01/31 02:22:31;;;;;;;;;;;8.30;99.90;;;;;;5073499;28;19909;-78
2022/01/31 02:24:57;;;;;;;;;;;8.20;99.90;;;;;;5073477;28;20019;-78
2022/01/31 02:27:26;;;;;;;;;;;8.30;99.90;;;;;;5073779;28;20288;-79
2022/01/31 02:29:52;;;;;;;;;;;8.40;99.90;;;;;;5055383;28;20387;-79
2022/01/31 02:32:20;;;;;;;;;;;8.30;99.90;;;;;;5073418;28;19999;-79
2022/01/31 02:34:46;;;;;;;;;;;8.40;99.90;;;;;;5055440;28;20258;-78
2022/01/31 02:37:12;;;;;;;;;;;8.30;99.90;;;;;;5073422;28;19959;-78
2022/01/31 02:39:37;;;;;;;;;;;8.40;99.90;;;;;;5073924;28;20272;-79
2022/01/31 02:42:03;;;;;;;;;;;8.50;99.90;;;;;;5073488;28;19995;-78
2022/01/31 02:44:29;;;;;;;;;;;8.50;99.90;;;;;;5073244;28;19981;-79
2022/01/31 02:46:55;;;;;;;;;;;8.50;99.90;;;;;;5073310;28;20337;-79
2022/01/31 02:49:25;;;;;;;;;;;8.50;99.90;;;;;;5073688;28;19908;-79
2022/01/31 02:51:53;;;;;;;;;;;8.60;99.90;;;;;;5073626;28;19962;-78
2022/01/31 02:54:18;;;;;;;;;;;8.60;99.90;;;;;;5073179;28;19973;-78
2022/01/31 02:56:44;;;;;;;;;;;8.60;99.90;;;;;;5073290;28;19991;-79
2022/01/31 02:59:09;;;;;;;;;;;8.60;99.90;;;;;;5073194;28;19989;-79
2022/01/31 03:01:35;;;;;;;;;;;8.70;99.90;;;;;;5073604;28;20271;-79
2022/01/31 03:04:01;;;;;;;;;;;8.80;99.90;;;;;;5073761;28;19909;-79
2022/01/31 03:06:27;;;;;;;;;;;8.70;99.90;;;;;;5076947;28;19908;-79
2022/01/31 03:08:52;;;;;;;;;;;8.70;99.90;;;;;;5077061;28;19938;-78
2022/01/31 03:11:18;;;;;;;;;;;8.70;99.90;;;;;;5058878;28;19916;-78
2022/01/31 03:13:43;;;;;;;;;;;8.60;99.90;;;;;;5058715;28;20345;-78
2022/01/31 03:16:09;;;;;;;;;;;8.50;99.90;;;;;;5077161;28;19948;-79
2022/01/31 03:18:35;;;;;;;;;;;8.50;99.90;;;;;;5076912;28;19962;-78
2022/01/31 03:21:00;;;;;;;;;;;8.60;99.90;;;;;;5076706;28;19909;-79
2022/01/31 03:23:26;;;;;;;;;;;8.60;99.90;;;;;;5076690;28;19913;-79
2022/01/31 03:25:51;;;;;;;;;;;8.70;99.90;;;;;;5077091;28;20341;-79
2022/01/31 03:28:17;;;;;;;;;;;8.70;99.90;;;;;;5076896;28;19954;-79
2022/01/31 03:30:42;;;;;;;;;;;8.80;99.90;;;;;;5058474;28;19912;-78
2022/01/31 03:33:08;;;;;;;;;;;8.70;99.90;;;;;;5076465;28;20014;-78
2022/01/31 03:35:34;;;;;;;;;;;8.70;99.90;;;;;;5058530;28;19909;-79
2022/01/31 03:37:59;;;;;;;;;;;8.70;99.90;;;;;;5076807;28;19955;-79
2022/01/31 03:40:25;;;;;;;;;;;8.80;99.90;;;;;;5076574;28;19909;-79
2022/01/31 03:42:50;;;;;;;;;;;8.80;99.90;;;;;;5076465;28;19974;-79
2022/01/31 03:45:16;;;;;;;;;;;8.80;99.90;;;;;;5076247;28;19954;-79
2022/01/31 03:47:46;;;;;;;;;;;8.80;99.90;;;;;;5075856;28;20372;-79
2022/01/31 03:50:17;;;;;;;;;;;8.80;99.90;;;;;;5058108;28;19913;-79
2022/01/31 03:52:42;;;;;;;;;;;8.80;99.90;;;;;;5076216;28;19915;-78
2022/01/31 03:55:09;;;;;;;;;;;8.80;99.90;;;;;;5076102;28;19908;-79
2022/01/31 03:57:35;;;;;;;;;;;8.80;99.90;;;;;;5076044;28;19908;-79
2022/01/31 04:00:04;;;;;;;;;;;8.80;99.90;;;;;;5076494;28;19915;-79
2022/01/31 04:02:29;;;;;;;;;;;8.90;99.90;;;;;;5076130;28;20411;-79
2022/01/31 04:04:55;;;;;;;;;;;9.00;99.90;;;;;;5057928;28;19909;-79
2022/01/31 04:07:21;;;;;;;;;;;9.10;99.90;;;;;;5075871;28;19908;-78
2022/01/31 04:09:46;;;;;;;;;;;9.20;99.90;;;;;;5075778;28;19916;-79
2022/01/31 04:12:12;;;;;;;;;;;9.20;99.90;;;;;;5075996;28;19916;-79
2022/01/31 04:14:38;;;;;;;;;;;9.30;99.90;;;;;;5075364;28;19974;-78
2022/01/31 04:17:07;;;;;;;;;;;9.40;99.90;;;;;;5075739;28;19915;-78
2022/01/31 04:19:33;;;;;;;;;;;9.40;99.90;;;;;;5057690;28;19936;-79
2022/01/31 04:21:58;;;;;;;;;;;9.40;99.90;;;;;;5075632;28;19919;-78
2022/01/31 04:24:31;;;;;;;;;;;9.40;99.90;;;;;;5057590;28;19954;-79
2022/01/31 04:26:59;;;;;;;;;;;9.50;99.90;;;;;;5075798;28;19999;-79
2022/01/31 04:29:28;;;;;;;;;;;9.60;99.90;;;;;;5057437;28;19909;-79
2022/01/31 04:31:54;;;;;;;;;;;9.50;99.90;;;;;;5075838;28;19908;-78
2022/01/31 04:34:22;;;;;;;;;;;9.50;99.90;;;;;;5075551;28;19916;-78
2022/01/31 04:36:47;;;;;;;;;;;9.40;99.90;;;;;;5075424;28;19909;-79
2022/01/31 04:39:17;;;;;;;;;;;9.30;99.90;;;;;;5075560;28;20318;-79
2022/01/31 04:41:43;;;;;;;;;;;9.10;99.90;;;;;;5075656;28;20421;-79
2022/01/31 04:44:09;;;;;;;;;;;9.10;99.90;;;;;;5075478;28;19912;-78
2022/01/31 04:46:35;;;;;;;;;;;8.90;99.90;;;;;;5075298;28;19908;-78
2022/01/31 04:49:01;;;;;;;;;;;8.90;99.90;;;;;;5075073;28;20338;-79
2022/01/31 04:51:26;;;;;;;;;;;8.90;99.90;;;;;;5075004;28;20328;-79
2022/01/31 04:53:52;;;;;;;;;;;8.80;99.90;;;;;;5074924;28;20353;-78
2022/01/31 04:56:18;;;;;;;;;;;8.80;99.90;;;;;;5075091;28;19909;-78
2022/01/31 04:58:43;;;;;;;;;;;8.70;99.90;;;;;;5074916;28;20284;-78
2022/01/31 05:01:09;;;;;;;;;;;8.80;99.90;;;;;;5074828;28;20391;-79
2022/01/31 05:03:35;;;;;;;;;;;8.70;99.90;;;;;;5075169;28;19948;-78
2022/01/31 05:06:00;;;;;;;;;;;8.60;99.90;;;;;;5074876;28;19908;-78
2022/01/31 05:08:28;;;;;;;;;;;8.60;99.90;;;;;;5056720;28;19962;-79
2022/01/31 05:10:54;;;;;;;;;;;8.70;99.90;;;;;;5075018;28;20390;-79
2022/01/31 05:13:20;;;;;;;;;;;8.60;99.90;;;;;;5074576;28;20007;-78
2022/01/31 05:15:46;;;;;;;;;;;8.70;99.90;;;;;;5056097;28;19924;-79
2022/01/31 05:18:12;;;;;;;;;;;8.60;99.90;;;;;;5074744;28;19924;-78
2022/01/31 05:20:40;;;;;;;;;;;8.50;99.90;;;;;;5073626;28;20202;-78
2022/01/31 05:23:06;;;;;;;;;;;8.50;99.90;;;;;;5074422;28;19934;-78
2022/01/31 05:25:32;;;;;;;;;;;8.50;99.90;;;;;;5074409;28;19955;-79
2022/01/31 05:27:58;;;;;;;;;;;8.50;99.90;;;;;;5055567;28;19970;-79
2022/01/31 05:30:23;;;;;;;;;;;8.40;99.90;;;;;;5074328;28;19916;-78
2022/01/31 05:32:49;;;;;;;;;;;8.40;99.90;;;;;;5056249;28;20281;-78
2022/01/31 05:35:15;;;;;;;;;;;8.40;99.90;;;;;;5074404;28;19916;-79
2022/01/31 05:37:41;;;;;;;;;;;8.40;99.90;;;;;;5056235;28;19959;-79
2022/01/31 05:40:07;;;;;;;;;;;8.40;99.90;;;;;;5056222;28;19912;-79
2022/01/31 05:42:33;;;;;;;;;;;8.30;99.90;;;;;;5074001;28;19957;-78
2022/01/31 05:44:59;;;;;;;;;;;8.20;99.90;;;;;;5074022;28;19913;-79
2022/01/31 05:47:24;;;;;;;;;;;8.20;99.90;;;;;;5074371;28;20368;-79
2022/01/31 05:49:50;;;;;;;;;;;8.20;99.90;;;;;;5074021;28;20375;-79
2022/01/31 05:52:16;;;;;;;;;;;8.20;99.90;;;;;;5073926;28;20038;-79
2022/01/31 05:54:42;;;;;;;;;;;8.30;99.90;;;;;;5073844;28;19915;-79
2022/01/31 05:57:08;;;;;;;;;;;8.30;99.90;;;;;;5073786;28;20003;-78
2022/01/31 05:59:35;;;;;;;;;;;8.30;99.90;;;;;;5073829;28;19915;-79
2022/01/31 06:02:01;;;;;;;;;;;8.20;99.90;;;;;;5073775;28;19909;-79
2022/01/31 06:04:27;;;;;;;;;;;8.40;99.90;;;;;;5073941;28;19962;-79
2022/01/31 06:06:53;;;;;;;;;;;8.50;99.90;;;;;;5073627;28;19915;-79
2022/01/31 06:09:18;;;;;;;;;;;8.50;99.90;;;;;;5055624;28;19913;-79
2022/01/31 06:11:47;;;;;;;;;;;8.40;99.90;;;;;;5073944;28;19909;-79
2022/01/31 06:14:12;;;;;;;;;;;8.40;99.90;;;;;;5073436;28;19928;-79
2022/01/31 06:16:38;;;;;;;;;;;8.50;99.90;;;;;;5073626;28;19913;-79
2022/01/31 06:19:03;;;;;;;;;;;8.50;99.90;;;;;;5073635;28;20395;-79
2022/01/31 06:21:29;;;;;;;;;;;8.50;99.90;;;;;;5073578;28;19920;-79
2022/01/31 06:23:55;;;;;;;;;;;8.50;99.90;;;;;;5073573;28;20396;-79
2022/01/31 06:26:21;;;;;;;;;;;8.50;99.90;;;;;;5073484;28;19908;-79
2022/01/31 06:28:47;;;;;;;;;;;8.50;99.90;;;;;;5055428;28;19916;-78
2022/01/31 06:31:13;;;;;;;;;;;8.50;99.90;;;;;;5073438;28;19920;-79
2022/01/31 06:33:39;;;;;;;;;;;8.50;99.90;;;;;;5073523;28;20260;-79
2022/01/31 06:36:04;;;;;;;;;;;8.50;99.90;;;;;;5073547;28;20390;-79
2022/01/31 06:38:30;;;;;;;;;;;8.30;99.90;;;;;;5075115;28;20420;-79
2022/01/31 06:40:55;;;;;;;;;;;8.30;99.90;;;;;;5077576;28;20280;-79
2022/01/31 06:43:21;;;;;;;;;;;8.30;99.90;;;;;;5077653;28;19935;-78
2022/01/31 06:45:47;;;;;;;;;;;8.30;99.90;;;;;;5077616;28;19908;-79
2022/01/31 06:48:13;;;;;;;;;;;8.20;99.90;;;;;;5077395;28;19915;-79
2022/01/31 06:50:38;;;;;;;;;;;8.10;99.90;;;;;;5077307;28;19916;-79
2022/01/31 06:53:05;;;;;;;;;;;8.00;99.90;;;;;;5077458;28;19965;-78
2022/01/31 06:55:33;;;;;;;;;;;8.00;99.90;;;;;;5077270;28;19908;-79
2022/01/31 06:57:59;;;;;;;;;;;8.10;99.90;;;;;;5077183;28;19913;-79
2022/01/31 07:00:25;;;;;;;;;;;8.20;99.90;;;;;;5077118;28;19908;-79
2022/01/31 07:02:51;;;;;;;;;;;8.30;99.90;;;;;;5077204;28;19931;-78
2022/01/31 07:05:18;;;;;;;;;;;8.40;99.90;;;;;;5059140;28;19908;-79
2022/01/31 07:07:43;;;;;;;;;;;8.40;99.90;;;;;;5077148;28;20004;-79
2022/01/31 07:10:09;;;;;;;;;;;8.20;99.90;;;;;;5077065;28;20305;-78
2022/01/31 07:12:39;;;;;;;;;;;8.10;99.90;;;;;;5076912;28;19909;-79
2022/01/31 07:15:05;;;;;;;;;;;8.00;99.90;;;;;;5076867;28;20406;-79
2022/01/31 07:17:31;;;;;;;;;;;7.90;99.90;;;;;;5076775;28;20000;-78
2022/01/31 07:19:57;;;;;;;;;;;7.90;99.90;;;;;;5077269;28;20373;-79
2022/01/31 07:22:31;;;;;;;;;;;7.90;99.90;;;;;;5076899;28;19970;-79
2022/01/31 07:25:04;;;;;;;;;;;7.80;99.90;;;;;;5058502;28;20281;-78
2022/01/31 07:27:30;;;;;;;;;;;7.70;99.90;;;;;;5058499;28;20293;-79
2022/01/31 07:29:56;;;;;;;;;;;7.70;99.90;;;;;;5076514;28;19913;-79
2022/01/31 07:32:21;;;;;;;;;;;7.70;99.90;;;;;;5076504;28;20004;-79
2022/01/31 07:34:49;;;;;;;;;;;7.60;99.90;;;;;;5058570;28;19908;-79
2022/01/31 07:37:14;;;;;;;;;;;7.50;99.90;;;;;;5076651;28;20037;-78
2022/01/31 07:39:41;;;;;;;;;;;7.60;99.90;;;;;;5076435;28;19978;-78
2022/01/31 07:42:07;;;;;;;;;;;7.60;99.90;;;;;;5076354;28;19909;-79
2022/01/31 07:44:32;;;;;;;;;;;7.70;99.90;;;;;;5076340;28;19931;-78
2022/01/31 07:46:58;;;;;;;;;;;7.70;99.90;;;;;;5076655;28;19913;-79
2022/01/31 07:49:23;;;;;;;;;;;7.70;99.90;;;;;;5075834;28;19909;-78
2022/01/31 07:51:49;;;;;;;;;;;7.70;99.90;;;;;;5076110;28;19918;-79
2022/01/31 07:54:15;;;;;;;;;;;7.80;99.90;;;;;;5058027;28;19917;-78
2022/01/31 07:56:41;;;;;;;;;;;7.80;99.90;;;;;;5075886;28;19908;-79
2022/01/31 07:59:06;;;;;;;;;;;7.90;99.90;;;;;;5075976;28;19916;-78
2022/01/31 08:01:32;;;;;;;;;;;8.00;99.90;;;;;;5057984;28;20302;-79
2022/01/31 08:03:58;;;;;;;;;;;8.00;99.90;;;;;;5076206;28;19912;-79
2022/01/31 08:06:23;;;;;;;;;;;8.10;99.90;;;;;;5075923;28;19909;-79
2022/01/31 08:08:50;;;;;;;;;;;8.10;99.90;;;;;;5075890;28;20057;-78
2022/01/31 08:11:16;;;;;;;;;;;8.30;99.90;;;;;;5076138;28;19912;-79
2022/01/31 08:13:41;;;;;;;;;;;8.40;99.90;;;;;;5075622;28;20308;-79
2022/01/31 08:18:33;;;;;;;;;;;8.80;99.90;;;;;;5075985;28;19908;-79
2022/01/31 08:20:59;;;;;;;;;;;9.00;99.90;;;;;;5075664;28;19912;-79
2022/01/31 08:23:25;;;;;;;;;;;9.00;99.90;;;;;;5075704;28;19909;-79
2022/01/31 08:25:51;;;;;;;;;;;9.20;99.90;;;;;;5075666;28;19930;-79
2022/01/31 08:28:18;;;;;;;;;;;9.20;99.90;;;;;;5075523;28;19955;-79
2022/01/31 08:30:54;;;;;;;;;;;9.20;99.90;;;;;;5075564;28;20379;-79
2022/01/31 08:33:34;;;;;;;;;;;9.10;99.90;;;;;;5075523;28;19908;-79
2022/01/31 08:36:03;;;;;;;;;;;9.10;99.90;;;;;;5075673;28;20369;-79
2022/01/31 08:38:29;;;;;;;;;;;9.10;99.90;;;;;;5075492;28;19909;-79
2022/01/31 08:40:55;;;;;;;;;;;9.00;99.90;;;;;;5075413;28;19909;-79
2022/01/31 08:43:21;;;;;;;;;;;9.00;99.90;;;;;;5075233;28;19969;-79
2022/01/31 08:45:49;;;;;;;;;;;9.00;99.90;;;;;;5075253;28;19908;-79
2022/01/31 08:48:14;;;;;;;;;;;9.10;99.90;;;;;;5057166;28;19908;-79
2022/01/31 08:50:40;;;;;;;;;;;9.10;99.90;;;;;;5075000;28;19912;-78
2022/01/31 08:53:05;;;;;;;;;;;9.10;99.90;;;;;;5075144;28;20388;-78
2022/01/31 08:55:31;;;;;;;;;;;9.10;99.90;;;;;;5075021;28;19989;-79
2022/01/31 08:57:57;;;;;;;;;;;9.20;99.90;;;;;;5074935;28;19908;-79
2022/01/31 09:00:33;;;;;;;;;;;9.40;99.90;;;;;;5074893;28;19995;-79
2022/01/31 09:03:06;;;;;;;;;;;9.60;99.90;;;;;;5056601;28;19912;-78
2022/01/31 09:05:32;;;;;;;;;;;9.90;99.90;;;;;;5056754;28;20295;-78
2022/01/31 09:07:57;;;;;;;;;;;10.10;99.90;;;;;;5056627;28;19908;-79
2022/01/31 09:10:23;;;;;;;;;;;10.40;99.90;;;;;;5074613;28;19912;-79
2022/01/31 09:12:48;;;;;;;;;;;10.60;99.90;;;;;;5074895;28;20370;-79
2022/01/31 09:15:14;;;;;;;;;;;10.90;99.90;;;;;;5074313;28;19921;-79
2022/01/31 09:17:42;;;;;;;;;;;11.00;99.90;;;;;;5074422;28;20364;-79
2022/01/31 09:20:09;;;;;;;;;;;11.30;99.90;;;;;;5074447;28;19909;-79
2022/01/31 09:22:34;;;;;;;;;;;11.70;99.90;;;;;;5056485;28;19909;-79
2022/01/31 09:25:00;;;;;;;;;;;12.40;99.90;;;;;;5074475;28;19916;-80
2022/01/31 09:27:27;;;;;;;;;;;13.10;99.90;;;;;;5074338;28;20373;-79
2022/01/31 09:29:53;;;;;;;;;;;13.80;99.90;;;;;;5074466;28;19913;-80
2022/01/31 09:32:22;;;;;;;;;;;14.00;99.90;;;;;;5056319;28;19912;-79
2022/01/31 09:34:48;;;;;;;;;;;14.30;99.90;;;;;;5074211;28;19915;-79
2022/01/31 09:37:14;;;;;;;;;;;13.90;99.90;;;;;;5074233;28;19909;-79
2022/01/31 09:39:42;;;;;;;;;;;14.20;99.90;;;;;;5074116;28;20011;-79
2022/01/31 09:42:11;;;;;;;;;;;14.30;99.90;;;;;;5074051;28;20444;-79
2022/01/31 09:45:09;;;;;;;;;;;14.80;99.90;;;;;;5074008;28;19909;-80
2022/01/31 09:50:20;;;;;;;;;;;15.20;98.00;;;;;;5074033;28;19923;-80
2022/01/31 09:52:45;;;;;;;;;;;14.60;98.40;;;;;;5073785;28;19954;-79
2022/01/31 09:55:12;;;;;;;;;;;13.80;99.40;;;;;;5073827;28;19912;-79
2022/01/31 09:57:38;;;;;;;;;;;13.30;99.90;;;;;;5073848;28;19958;-79
2022/01/31 10:00:04;;;;;;;;;;;12.80;99.90;;;;;;5073832;28;19909;-79
2022/01/31 10:02:30;;;;;;;;;;;12.30;99.90;;;;;;5074242;28;19935;-79
2022/01/31 10:04:55;;;;;;;;;;;12.20;99.90;;;;;;5073849;28;20280;-79
2022/01/31 10:07:21;;;;;;;;;;;12.10;99.90;;;;;;5073673;28;19909;-79
2022/01/31 10:09:48;;;;;;;;;;;12.40;99.90;;;;;;5055619;28;19934;-79
2022/01/31 10:12:26;;;;;;;;;;;13.00;99.90;;;;;;5073609;28;19926;-79
2022/01/31 10:17:37;;;;;;;;;;;12.90;99.90;;;;;;5053354;28;19955;-79
2022/01/31 10:20:04;;;;;;;;;;;13.40;99.90;;;;;;5053744;28;20342;-80
2022/01/31 10:22:31;;;;;;;;;;;15.70;99.60;;;;;;5052252;28;19917;-80
2022/01/31 10:24:57;;;;;;;;;;;16.70;96.10;;;;;;5052224;28;20345;-80
2022/01/31 10:27:23;;;;;;;;;;;16.00;95.70;;;;;;5053363;28;20407;-79
2022/01/31 10:29:49;;;;;;;;;;;16.40;95.60;;;;;;5051967;28;19917;-80
2022/01/31 10:32:17;;;;;;;;;;;15.50;94.50;;;;;;5053358;28;19908;-80
2022/01/31 10:34:52;;;;;;;;;;;14.20;96.40;;;;;;5052113;28;20031;-79
2022/01/31 10:37:19;;;;;;;;;;;13.50;98.00;;;;;;5053400;28;19909;-80
2022/01/31 10:53:42;;;;;;;;;;;20.80;75.00;;;;;;5042931;28;19916;-80
2022/01/31 10:56:08;;;;;;;;;;;21.60;74.90;;;;;;5051611;28;19909;-79
2022/01/31 10:58:34;;;;;;;;;;;20.20;74.50;;;;;;5053171;28;19909;-79
2022/01/31 11:01:12;;;;;;;;;;;17.90;77.20;;;;;;5053072;28;20345;-79
2022/01/31 11:03:38;;;;;;;;;;;16.30;83.10;;;;;;5053137;28;20281;-79
2022/01/31 11:06:10;;;;;;;;;;;14.90;87.80;;;;;;5053050;28;19916;-79
2022/01/31 11:08:36;;;;;;;;;;;14.10;91.40;;;;;;5053220;28;19916;-79
2022/01/31 11:11:02;;;;;;;;;;;13.40;93.50;;;;;;5052976;28;20272;-79
2022/01/31 11:13:29;;;;;;;;;;;12.60;97.10;;;;;;5053113;28;19955;-78
2022/01/31 11:15:55;;;;;;;;;;;12.50;98.20;;;;;;5073002;28;20286;-79
2022/01/31 11:18:28;;;;;;;;;;;12.50;99.50;;;;;;5054955;28;20292;-79
2022/01/31 11:20:57;;;;;;;;;;;12.40;99.80;;;;;;5073259;28;19909;-79
2022/01/31 11:23:26;;;;;;;;;;;12.50;99.90;;;;;;5072909;28;19916;-79
2022/01/31 11:25:54;;;;;;;;;;;12.80;99.90;;;;;;5074899;28;20436;-79
2022/01/31 11:28:20;;;;;;;;;;;13.10;99.80;;;;;;5076552;28;19909;-79
2022/01/31 11:30:46;;;;;;;;;;;13.40;99.10;;;;;;5058407;28;19912;-79
2022/01/31 11:33:12;;;;;;;;;;;13.50;98.60;;;;;;5076574;28;19915;-80
2022/01/31 11:35:38;;;;;;;;;;;13.40;98.70;;;;;;5076628;28;20003;-79
2022/01/31 11:38:03;;;;;;;;;;;13.50;98.00;;;;;;5076518;28;19955;-79
2022/01/31 11:40:29;;;;;;;;;;;13.50;97.70;;;;;;5058329;28;19912;-79
2022/01/31 11:42:55;;;;;;;;;;;13.70;97.20;;;;;;5058317;28;19954;-79
2022/01/31 11:45:35;;;;;;;;;;;14.60;96.30;;;;;;5076448;28;19909;-79
2022/01/31 11:48:04;;;;;;;;;;;19.80;88.80;;;;;;5076297;28;19909;-80
2022/01/31 11:50:30;;;;;;;;;;;21.90;75.10;;;;;;5076069;28;19912;-79
2022/01/31 11:53:00;;;;;;;;;;;19.80;75.50;;;;;;5076186;28;20411;-79
2022/01/31 11:55:29;;;;;;;;;;;18.40;76.50;;;;;;5076145;28;19916;-79
2022/01/31 11:57:56;;;;;;;;;;;16.90;80.80;;;;;;5075971;28;19995;-79
2022/01/31 12:00:23;;;;;;;;;;;16.20;84.20;;;;;;5076043;28;19913;-80
2022/01/31 12:02:51;;;;;;;;;;;15.40;84.10;;;;;;5075896;28;19908;-79
2022/01/31 12:05:19;;;;;;;;;;;14.40;86.80;;;;;;5075921;28;19908;-79
2022/01/31 12:07:46;;;;;;;;;;;14.00;90.40;;;;;;5075893;28;20387;-79
2022/01/31 12:10:32;;;;;;;;;;;13.40;92.50;;;;;;5075738;28;19955;-78
2022/01/31 12:13:03;;;;;;;;;;;12.60;94.40;;;;;;5075906;28;20387;-79
2022/01/31 12:18:53;;;;;;;;;;;16.30;92.00;;;;;;5075638;28;19908;-79
2022/01/31 12:24:02;;;;;;;;;;;22.20;76.50;;;;;;5075769;28;19961;-79
2022/01/31 12:26:27;;;;;;;;;;;25.50;65.10;;;;;;5075483;28;20435;-79
2022/01/31 12:28:54;;;;;;;;;;;23.90;59.70;;;;;;5075421;28;19958;-79
2022/01/31 12:31:29;;;;;;;;;;;20.90;64.20;;;;;;5075289;28;19917;-79
2022/01/31 12:33:54;;;;;;;;;;;20.50;66.20;;;;;;5075637;28;20391;-79
2022/01/31 12:36:35;;;;;;;;;;;18.00;65.50;;;;;;5074867;28;19954;-79
2022/01/31 12:39:23;;;;;;;;;;;15.90;70.90;;;;;;5057284;28;19915;-79
2022/01/31 12:41:59;;;;;;;;;;;14.40;79.60;;;;;;5075084;28;19931;-79
2022/01/31 12:44:34;;;;;;;;;;;14.10;87.80;;;;;;5075359;28;19912;-79
2022/01/31 12:47:11;;;;;;;;;;;14.40;87.10;;;;;;5075051;28;20257;-79
2022/01/31 12:49:37;;;;;;;;;;;17.70;81.40;;;;;;5075147;28;19908;-79
2022/01/31 12:52:04;;;;;;;;;;;22.00;68.20;;;;;;5074975;28;19915;-79
2022/01/31 12:54:30;;;;;;;;;;;23.50;61.00;;;;;;5057249;28;19916;-80
2022/01/31 12:57:02;;;;;;;;;;;24.70;57.20;;;;;;5074914;28;19909;-80
2022/01/31 12:59:27;;;;;;;;;;;26.40;54.50;;;;;;5074901;28;20262;-80
2022/01/31 13:01:53;;;;;;;;;;;27.10;53.10;;;;;;5056782;28;19915;-79
2022/01/31 13:04:23;;;;;;;;;;;27.50;50.80;;;;;;5074713;28;20011;-80
2022/01/31 13:06:50;;;;;;;;;;;27.80;49.60;;;;;;5075004;28;19915;-80
2022/01/31 13:09:17;;;;;;;;;;;27.90;48.40;;;;;;5074637;28;19908;-77
2022/01/31 13:11:45;;;;;;;;;;;27.20;47.30;;;;;;5074601;28;19919;-77
2022/01/31 13:14:12;;;;;;;;;;;26.80;46.50;;;;;;5074278;28;19920;-77
2022/01/31 13:16:42;;;;;;;;;;;26.10;46.40;;;;;;5056549;28;19995;-77
2022/01/31 13:19:12;;;;;;;;;;;25.70;47.10;;;;;;5074681;28;19909;-77
2022/01/31 13:21:38;;;;;;;;;;;24.10;48.00;;;;;;5056415;28;19915;-77
2022/01/31 13:24:04;;;;;;;;;;;23.10;50.00;;;;;;5056393;28;19908;-77
2022/01/31 13:26:29;;;;;;;;;;;22.20;51.70;;;;;;5074423;28;19965;-76
2022/01/31 13:28:55;;;;;;;;;;;20.40;54.50;;;;;;5074498;28;19912;-77
2022/01/31 13:31:23;;;;;;;;;;;19.50;57.40;;;;;;5074130;28;20356;-77
2022/01/31 13:33:51;;;;;;;;;;;19.30;58.10;;;;;;5074162;28;19909;-76
2022/01/31 13:36:16;;;;;;;;;;;19.50;59.70;;;;;;5056126;28;20323;-77
2022/01/31 13:38:43;;;;;;;;;;;19.20;60.80;;;;;;5074134;28;19908;-77
2022/01/31 13:41:10;;;;;;;;;;;17.50;68.60;;;;;;5074116;28;20293;-76
2022/01/31 13:43:38;;;;;;;;;;;16.30;73.70;;;;;;5074068;28;19909;-79
2022/01/31 13:49:07;;;;;;;;;;;14.20;82.60;;;;;;5073458;28;19915;-79
2022/01/31 13:51:45;;;;;;;;;;;14.60;84.30;;;;;;5074044;28;19920;-80
2022/01/31 13:54:14;;;;;;;;;;;16.20;80.10;;;;;;5055809;28;19908;-79
2022/01/31 13:56:46;;;;;;;;;;;16.40;77.80;;;;;;5055861;28;19912;-80
2022/01/31 13:59:14;;;;;;;;;;;16.30;76.00;;;;;;5073986;28;20353;-79
2022/01/31 14:01:40;;;;;;;;;;;15.30;77.90;;;;;;5073755;28;19912;-79
2022/01/31 14:04:05;;;;;;;;;;;15.20;78.60;;;;;;5073753;28;19954;-79
2022/01/31 14:06:32;;;;;;;;;;;14.60;80.90;;;;;;5073673;28;19908;-79
2022/01/31 14:09:02;;;;;;;;;;;14.20;83.50;;;;;;5055715;28;19908;-79
2022/01/31 14:11:28;;;;;;;;;;;14.10;83.60;;;;;;5073591;28;19913;-79
2022/01/31 14:13:55;;;;;;;;;;;14.50;82.50;;;;;;5073386;28;20384;-79
2022/01/31 14:16:27;;;;;;;;;;;14.80;82.70;;;;;;5073578;28;19915;-79
2022/01/31 14:18:54;;;;;;;;;;;14.50;83.30;;;;;;5073700;28;19954;-79
2022/01/31 14:21:20;;;;;;;;;;;13.90;83.70;;;;;;5055535;28;19916;-79
2022/01/31 14:23:49;;;;;;;;;;;13.70;86.30;;;;;;5073481;28;19908;-79
2022/01/31 14:26:17;;;;;;;;;;;13.60;87.40;;;;;;5055470;28;19962;-79
2022/01/31 14:28:44;;;;;;;;;;;13.10;88.30;;;;;;5073860;28;20399;-79
2022/01/31 14:31:10;;;;;;;;;;;13.00;89.50;;;;;;5073622;28;19967;-79
2022/01/31 14:33:40;;;;;;;;;;;12.50;90.20;;;;;;5073404;28;20261;-79
2022/01/31 14:36:07;;;;;;;;;;;12.40;90.70;;;;;;5073446;28;19920;-79
2022/01/31 14:38:40;;;;;;;;;;;12.20;92.00;;;;;;5073393;28;19913;-78
2022/01/31 14:41:14;;;;;;;;;;;11.90;92.90;;;;;;5073562;28;20365;-79
2022/01/31 14:49:11;;;;;;;;;;;11.90;94.80;;;;;;5073298;28;19919;-79
2022/01/31 14:51:38;;;;;;;;;;;11.60;94.40;;;;;;5073370;28;19966;-79
2022/01/31 14:54:06;;;;;;;;;;;11.70;94.30;;;;;;5073103;28;19908;-78
2022/01/31 14:56:32;;;;;;;;;;;11.60;94.70;;;;;;5073196;28;19909;-79
2022/01/31 14:58:59;;;;;;;;;;;11.60;94.70;;;;;;5073738;28;19912;-79
2022/01/31 15:01:24;;;;;;;;;;;11.50;95.10;;;;;;5077270;28;20365;-79
2022/01/31 15:03:50;;;;;;;;;;;11.50;94.70;;;;;;5077129;28;19916;-78